Time;durP1;ratioP1;P1;durP2;ratioP2;P2;SDS_P1;SDS_P2;PMS_P1;PMS_P2;Temp;Humidity;BMP_temperature;BMP_pressure;BME280_temperature;BME280_humidity;BME280_pressure;Samples;Min_cycle;Max_cycle;Signal;HPM_P1;HPM_P2
2024/01/25 00:01:34;;;;;;;33.28;7.45;;;7.20;88.40;;;;;;5079228;28;20100;-81
2024/01/25 00:04:00;;;;;;;32.63;7.15;;;7.30;88.40;;;;;;5095941;28;20039;-81
2024/01/25 00:06:26;;;;;;;35.22;9.65;;;7.20;88.40;;;;;;5095950;28;20130;-81
2024/01/25 00:08:51;;;;;;;37.65;8.38;;;7.10;88.60;;;;;;5096044;28;20122;-81
2024/01/25 00:11:17;;;;;;;34.15;6.90;;;7.10;88.60;;;;;;5095832;28;20180;-81
2024/01/25 00:13:43;;;;;;;31.48;6.22;;;7.10;88.50;;;;;;5096231;28;20061;-81
2024/01/25 00:16:08;;;;;;;40.95;8.60;;;7.20;88.80;;;;;;5095910;28;20035;-81
2024/01/25 00:18:34;;;;;;;37.25;7.72;;;7.20;88.60;;;;;;5062516;28;20126;-81
2024/01/25 00:21:00;;;;;;;30.02;8.20;;;7.10;88.50;;;;;;5078958;28;20487;-81
2024/01/25 00:23:26;;;;;;;33.90;8.45;;;7.10;88.90;;;;;;5078983;28;20433;-81
2024/01/25 00:25:51;;;;;;;37.10;7.28;;;7.10;88.90;;;;;;5095927;28;20040;-81
2024/01/25 00:28:17;;;;;;;37.03;7.18;;;7.10;89.10;;;;;;5095526;28;20046;-80
2024/01/25 00:30:43;;;;;;;26.67;6.07;;;7.10;89.20;;;;;;5078875;28;20127;-81
2024/01/25 00:33:09;;;;;;;32.33;7.85;;;7.10;89.20;;;;;;5078934;28;20039;-81
2024/01/25 00:35:35;;;;;;;37.95;8.80;;;7.00;89.30;;;;;;5062163;28;20031;-81
2024/01/25 00:38:01;;;;;;;38.08;8.38;;;7.00;89.50;;;;;;5079411;28;20133;-81
2024/01/25 00:40:27;;;;;;;35.35;6.80;;;7.00;89.60;;;;;;5062179;28;20126;-81
2024/01/25 00:42:53;;;;;;;35.35;8.07;;;7.00;89.50;;;;;;5097619;28;20223;-81
2024/01/25 00:45:23;;;;;;;33.85;6.68;;;7.10;89.50;;;;;;5117098;28;20134;-81
2024/01/25 00:47:50;;;;;;;39.05;7.85;;;7.00;89.70;;;;;;5099531;28;20046;-81
2024/01/25 00:50:23;;;;;;;41.17;9.07;;;7.00;89.70;;;;;;5116612;28;20036;-81
2024/01/25 00:52:50;;;;;;;27.83;5.88;;;6.90;89.70;;;;;;5084321;28;20383;-81
2024/01/25 00:55:16;;;;;;;24.77;7.85;;;6.90;90.10;;;;;;5116542;28;20042;-81
2024/01/25 00:57:42;;;;;;;39.35;9.38;;;6.90;89.80;;;;;;5116811;28;20043;-81
2024/01/25 01:00:08;;;;;;;34.60;7.00;;;6.90;90.10;;;;;;5116653;28;20102;-81
2024/01/25 01:02:43;;;;;;;36.75;9.35;;;6.80;90.20;;;;;;5082922;28;20043;-81
2024/01/25 01:05:10;;;;;;;29.67;6.47;;;6.80;90.20;;;;;;5116390;28;20047;-81
2024/01/25 01:07:36;;;;;;;43.13;8.57;;;6.90;90.40;;;;;;5099180;28;20400;-80
2024/01/25 01:10:02;;;;;;;43.70;7.70;;;6.80;90.30;;;;;;5065541;28;20749;-80
2024/01/25 01:12:28;;;;;;;42.78;8.90;;;6.80;90.50;;;;;;5099463;28;20383;-81
2024/01/25 01:14:54;;;;;;;39.92;7.18;;;6.80;90.60;;;;;;5099258;28;20123;-81
2024/01/25 01:17:20;;;;;;;35.42;8.93;;;6.80;90.60;;;;;;5082307;28;20035;-80
2024/01/25 01:19:45;;;;;;;39.42;7.22;;;6.80;90.60;;;;;;5116067;28;20054;-80
2024/01/25 01:22:11;;;;;;;39.15;9.60;;;6.80;90.80;;;;;;5082230;28;20076;-82
2024/01/25 01:24:37;;;;;;;40.60;8.48;;;6.80;91.00;;;;;;5065511;28;20055;-81
2024/01/25 01:27:03;;;;;;;40.08;7.85;;;6.70;90.90;;;;;;5081992;28;20095;-81
2024/01/25 01:29:28;;;;;;;41.65;9.13;;;6.70;91.20;;;;;;5081845;28;20067;-81
2024/01/25 01:31:54;;;;;;;43.63;8.68;;;6.70;91.20;;;;;;5065656;28;20040;-81
2024/01/25 01:34:20;;;;;;;45.72;8.05;;;6.70;91.20;;;;;;5065414;28;20433;-81
2024/01/25 01:36:45;;;;;;;42.50;7.50;;;6.70;91.30;;;;;;5082208;28;20059;-81
2024/01/25 01:39:11;;;;;;;43.75;8.55;;;6.70;91.50;;;;;;5065251;28;20495;-81
2024/01/25 01:41:37;;;;;;;41.55;7.93;;;6.60;91.40;;;;;;5115522;28;20108;-82
2024/01/25 01:44:02;;;;;;;38.72;7.65;;;6.60;91.60;;;;;;5098461;28;20400;-81
2024/01/25 01:46:36;;;;;;;46.92;9.60;;;6.60;91.60;;;;;;5098596;28;20046;-82
2024/01/25 01:49:03;;;;;;;30.85;7.10;;;6.60;91.50;;;;;;5098593;28;20082;-82
2024/01/25 01:51:31;;;;;;;43.33;7.75;;;6.60;91.60;;;;;;5082011;28;20739;-82
2024/01/25 01:53:59;;;;;;;36.78;7.50;;;6.60;91.70;;;;;;5097753;28;20861;-81
2024/01/25 01:56:26;;;;;;;33.75;8.90;;;6.60;91.60;;;;;;5098450;28;20036;-82
2024/01/25 01:58:53;;;;;;;35.28;8.10;;;6.60;91.60;;;;;;5098345;28;20513;-81
2024/01/25 02:01:20;;;;;;;49.28;8.57;;;6.60;91.60;;;;;;5115250;28;20040;-81
2024/01/25 02:03:46;;;;;;;37.03;8.23;;;6.60;91.50;;;;;;5098568;28;20054;-81
2024/01/25 02:06:12;;;;;;;30.58;8.15;;;6.50;91.60;;;;;;5082179;28;20379;-81
2024/01/25 02:08:38;;;;;;;37.45;8.65;;;6.50;91.60;;;;;;5098162;28;20361;-81
2024/01/25 02:11:04;;;;;;;41.45;8.02;;;6.60;91.50;;;;;;5114995;28;20043;-82
2024/01/25 02:13:30;;;;;;;32.08;7.55;;;6.60;91.60;;;;;;5115100;28;20441;-81
2024/01/25 02:15:56;;;;;;;43.20;9.38;;;6.60;91.60;;;;;;5114885;28;20043;-82
2024/01/25 02:18:22;;;;;;;37.97;7.57;;;6.60;91.60;;;;;;5097894;28;20043;-81
2024/01/25 02:20:48;;;;;;;32.90;7.45;;;6.60;91.70;;;;;;5081045;28;20039;-82
2024/01/25 02:23:14;;;;;;;31.55;7.53;;;6.60;91.70;;;;;;5115127;28;20035;-81
2024/01/25 02:25:39;;;;;;;44.80;9.70;;;6.60;91.70;;;;;;5080805;28;20402;-81
2024/01/25 02:28:05;;;;;;;35.72;7.43;;;6.60;91.70;;;;;;5097596;28;20036;-81
2024/01/25 02:30:31;;;;;;;37.33;9.00;;;6.50;91.70;;;;;;5097740;28;20522;-82
2024/01/25 02:32:57;;;;;;;39.95;9.23;;;6.50;91.70;;;;;;5064159;28;20084;-81
2024/01/25 02:35:22;;;;;;;41.35;8.90;;;6.50;91.80;;;;;;5064048;28;20123;-82
2024/01/25 02:37:50;;;;;;;39.63;8.50;;;6.50;91.80;;;;;;5098231;28;20036;-82
2024/01/25 02:40:16;;;;;;;25.95;7.03;;;6.50;91.80;;;;;;5114775;28;20051;-81
2024/01/25 02:42:42;;;;;;;28.75;6.90;;;6.40;92.00;;;;;;5097864;28;20066;-81
2024/01/25 02:45:08;;;;;;;36.38;9.27;;;6.40;92.00;;;;;;5080901;28;20484;-81
2024/01/25 02:47:33;;;;;;;36.10;8.20;;;6.40;92.10;;;;;;5080936;28;20088;-83
2024/01/25 02:49:59;;;;;;;34.08;7.57;;;6.30;92.10;;;;;;5097397;28;20032;-82
2024/01/25 02:52:25;;;;;;;41.45;8.50;;;6.40;92.10;;;;;;5080502;28;20039;-81
2024/01/25 02:54:50;;;;;;;42.80;9.15;;;6.30;92.00;;;;;;5063837;28;20039;-81
2024/01/25 02:57:17;;;;;;;44.85;9.05;;;6.30;92.10;;;;;;5114466;28;20036;-81
2024/01/25 02:59:42;;;;;;;36.42;8.23;;;6.30;92.20;;;;;;5097060;28;20071;-81
2024/01/25 03:02:08;;;;;;;36.20;9.20;;;6.20;92.20;;;;;;5080261;28;20132;-82
2024/01/25 03:04:34;;;;;;;49.50;8.93;;;6.20;92.30;;;;;;5097405;28;20051;-81
2024/01/25 03:06:59;;;;;;;52.63;10.05;;;6.10;92.20;;;;;;5062448;28;20454;-82
2024/01/25 03:09:25;;;;;;;46.72;8.73;;;6.10;92.40;;;;;;5097034;28;20035;-81
2024/01/25 03:11:51;;;;;;;37.13;7.40;;;6.10;92.40;;;;;;5096867;28;20118;-82
2024/01/25 03:14:17;;;;;;;38.10;9.35;;;6.20;92.60;;;;;;5079949;28;20126;-81
2024/01/25 03:16:43;;;;;;;39.83;8.48;;;6.20;92.30;;;;;;5082579;28;20044;-81
2024/01/25 03:19:11;;;;;;;40.00;10.07;;;6.10;92.40;;;;;;5098281;28;20578;-81
2024/01/25 03:21:36;;;;;;;35.03;7.03;;;6.10;92.60;;;;;;5079929;28;20053;-81
2024/01/25 03:24:02;;;;;;;44.25;9.30;;;6.10;92.70;;;;;;5113662;28;20040;-81
2024/01/25 03:26:28;;;;;;;39.13;7.88;;;6.00;92.70;;;;;;5079764;28;20043;-82
2024/01/25 03:28:54;;;;;;;41.38;8.77;;;6.00;92.70;;;;;;5079333;28;20109;-81
2024/01/25 03:31:19;;;;;;;37.33;9.00;;;6.00;92.70;;;;;;5079743;28;20126;-81
2024/01/25 03:33:45;;;;;;;44.35;8.90;;;6.00;92.80;;;;;;5079731;28;20036;-82
2024/01/25 03:36:14;;;;;;;40.03;8.82;;;5.90;92.80;;;;;;5079864;28;20044;-81
2024/01/25 03:38:39;;;;;;;36.38;8.65;;;5.90;92.90;;;;;;5096486;28;20039;-82
2024/01/25 03:41:05;;;;;;;46.35;8.77;;;5.90;92.90;;;;;;5079723;28;20050;-82
2024/01/25 03:43:31;;;;;;;46.70;8.05;;;5.80;92.80;;;;;;5096752;28;20039;-81
2024/01/25 03:45:56;;;;;;;39.10;7.90;;;5.80;93.00;;;;;;5079768;28;20140;-81
2024/01/25 03:48:22;;;;;;;44.42;9.13;;;5.80;92.90;;;;;;5113262;28;20400;-81
2024/01/25 03:50:48;;;;;;;29.58;7.07;;;5.70;92.90;;;;;;5096353;28;20093;-81
2024/01/25 03:53:14;;;;;;;41.05;8.40;;;5.70;93.30;;;;;;5096243;28;20040;-81
2024/01/25 03:55:41;;;;;;;44.38;9.13;;;5.70;93.10;;;;;;5096326;28;20040;-81
2024/01/25 03:58:06;;;;;;;35.05;9.32;;;5.70;93.20;;;;;;5096145;28;20106;-81
2024/01/25 04:00:32;;;;;;;37.40;8.30;;;5.70;93.10;;;;;;5095980;28;20101;-81
2024/01/25 04:02:58;;;;;;;41.40;8.98;;;5.60;93.20;;;;;;5096338;28;20032;-81
2024/01/25 04:05:26;;;;;;;44.20;9.18;;;5.60;93.30;;;;;;5096235;28;20071;-81
2024/01/25 04:07:52;;;;;;;47.17;10.18;;;5.60;93.30;;;;;;5112918;28;20039;-82
2024/01/25 04:10:17;;;;;;;45.17;9.77;;;5.60;93.40;;;;;;5095947;28;20457;-82
2024/01/25 04:12:43;;;;;;;50.05;9.63;;;5.50;93.40;;;;;;5079438;28;20040;-81
2024/01/25 04:15:09;;;;;;;57.05;9.85;;;5.60;93.40;;;;;;5078738;28;20031;-82
2024/01/25 04:17:35;;;;;;;48.58;8.10;;;5.50;93.60;;;;;;5095760;28;20035;-82
2024/01/25 04:20:00;;;;;;;49.05;11.05;;;5.50;93.60;;;;;;5078939;28;20100;-82
2024/01/25 04:22:26;;;;;;;37.28;8.50;;;5.40;93.50;;;;;;5079100;28;20039;-81
2024/01/25 04:24:52;;;;;;;48.63;9.25;;;5.50;93.80;;;;;;5078531;28;20126;-81
2024/01/25 04:27:19;;;;;;;55.35;9.80;;;5.40;93.70;;;;;;5095788;28;20043;-81
2024/01/25 04:29:44;;;;;;;47.03;9.52;;;5.40;93.70;;;;;;5078664;28;20462;-82
2024/01/25 04:32:11;;;;;;;40.17;8.30;;;5.30;93.70;;;;;;5062182;28;20119;-81
2024/01/25 04:34:37;;;;;;;48.00;9.65;;;5.30;93.80;;;;;;5095513;28;20043;-82
2024/01/25 04:37:03;;;;;;;50.60;10.10;;;5.40;93.90;;;;;;5062278;28;20047;-81
2024/01/25 04:39:29;;;;;;;42.67;8.85;;;5.40;93.90;;;;;;5095688;28;20461;-81
2024/01/25 04:41:54;;;;;;;52.38;10.73;;;5.30;93.80;;;;;;5078827;28;20039;-82
2024/01/25 04:44:20;;;;;;;49.83;9.43;;;5.30;94.00;;;;;;5095573;28;20130;-81
2024/01/25 04:46:46;;;;;;;53.75;12.55;;;5.30;94.00;;;;;;5095505;28;20075;-81
2024/01/25 04:49:11;;;;;;;42.13;7.55;;;5.20;94.00;;;;;;5062179;28;20070;-82
2024/01/25 04:51:37;;;;;;;51.25;9.90;;;5.20;94.10;;;;;;5095524;28;20438;-81
2024/01/25 04:54:03;;;;;;;47.88;9.68;;;5.30;94.10;;;;;;5062030;28;20043;-82
2024/01/25 04:56:29;;;;;;;51.95;9.20;;;5.30;94.00;;;;;;5078682;28;20039;-82
2024/01/25 04:58:54;;;;;;;46.45;8.23;;;5.30;94.10;;;;;;5095650;28;20101;-82
2024/01/25 05:01:20;;;;;;;45.58;10.40;;;5.40;94.30;;;;;;5078552;28;20506;-81
2024/01/25 05:03:46;;;;;;;42.45;7.72;;;5.30;94.20;;;;;;5061938;28;20603;-81
2024/01/25 05:06:11;;;;;;;49.20;9.95;;;5.40;94.20;;;;;;5095363;28;20126;-82
2024/01/25 05:08:38;;;;;;;39.60;7.95;;;5.40;94.00;;;;;;5095506;28;20036;-81
2024/01/25 05:11:03;;;;;;;37.85;7.07;;;5.30;94.00;;;;;;5078403;28;20041;-81
2024/01/25 05:13:29;;;;;;;56.22;10.55;;;5.30;94.20;;;;;;5112423;28;20566;-82
2024/01/25 05:15:55;;;;;;;43.97;8.77;;;5.30;94.20;;;;;;5061950;28;20071;-81
2024/01/25 05:18:21;;;;;;;44.35;8.02;;;5.30;94.30;;;;;;5078469;28;20449;-81
2024/01/25 05:20:46;;;;;;;43.67;9.10;;;5.30;94.30;;;;;;5061987;28;20047;-81
2024/01/25 05:23:12;;;;;;;48.13;8.30;;;5.30;94.20;;;;;;5078422;28;20443;-81
2024/01/25 05:25:38;;;;;;;42.00;9.10;;;5.30;94.30;;;;;;5095215;28;20043;-82
2024/01/25 05:28:04;;;;;;;38.05;8.20;;;5.30;94.30;;;;;;5078159;28;20044;-82
2024/01/25 05:30:29;;;;;;;41.70;8.75;;;5.20;94.30;;;;;;5064380;28;20048;-82
2024/01/25 05:32:55;;;;;;;43.00;8.68;;;5.20;94.30;;;;;;5098804;28;20043;-82
2024/01/25 05:35:21;;;;;;;53.63;9.40;;;5.20;94.30;;;;;;5081976;28;20066;-81
2024/01/25 05:37:47;;;;;;;48.22;9.50;;;5.20;94.40;;;;;;5099075;28;20066;-81
2024/01/25 05:40:13;;;;;;;52.95;9.52;;;5.10;94.50;;;;;;5081809;28;20483;-82
2024/01/25 05:42:40;;;;;;;46.40;8.40;;;5.10;94.50;;;;;;5082014;28;20039;-82
2024/01/25 05:45:06;;;;;;;41.03;9.20;;;5.10;94.50;;;;;;5098917;28;20074;-82
2024/01/25 05:47:32;;;;;;;46.67;7.95;;;5.10;94.60;;;;;;5081609;28;20181;-82
2024/01/25 05:49:58;;;;;;;45.28;10.23;;;5.10;94.60;;;;;;5081433;28;20516;-82
2024/01/25 05:52:23;;;;;;;46.10;8.75;;;5.10;94.60;;;;;;5098506;28;20043;-82
2024/01/25 05:54:50;;;;;;;39.95;9.18;;;5.10;94.70;;;;;;5081698;28;20071;-82
2024/01/25 05:57:17;;;;;;;44.17;8.68;;;5.10;94.70;;;;;;5081962;28;20138;-82
2024/01/25 05:59:43;;;;;;;35.97;7.88;;;5.10;94.80;;;;;;5081509;28;20130;-82
2024/01/25 06:02:09;;;;;;;42.25;9.65;;;5.10;94.70;;;;;;5081492;28;20133;-82
2024/01/25 06:04:34;;;;;;;37.00;8.38;;;5.10;94.70;;;;;;5115331;28;20126;-81
2024/01/25 06:07:00;;;;;;;29.95;7.43;;;5.10;94.80;;;;;;5081390;28;20498;-81
2024/01/25 06:09:26;;;;;;;45.08;8.77;;;5.10;94.70;;;;;;5115145;28;20046;-81
2024/01/25 06:11:52;;;;;;;36.13;10.02;;;5.00;94.70;;;;;;5098342;28;20042;-81
2024/01/25 06:14:18;;;;;;;43.38;7.47;;;4.90;94.70;;;;;;5098194;28;20514;-81
2024/01/25 06:16:44;;;;;;;38.78;8.05;;;4.80;94.70;;;;;;5098276;28;20039;-81
2024/01/25 06:19:10;;;;;;;59.88;10.30;;;4.70;94.70;;;;;;5114934;28;20118;-82
2024/01/25 06:21:37;;;;;;;48.75;8.95;;;4.70;94.80;;;;;;5115292;28;20126;-81
2024/01/25 06:24:04;;;;;;;46.13;10.60;;;4.60;94.80;;;;;;5115205;28;20051;-82
2024/01/25 06:26:30;;;;;;;53.35;11.40;;;4.60;94.80;;;;;;5114966;28;20438;-82
2024/01/25 06:28:59;;;;;;;49.97;12.23;;;4.50;94.90;;;;;;5114716;28;20040;-81
2024/01/25 06:31:25;;;;;;;49.72;9.30;;;4.40;94.90;;;;;;5097602;28;20035;-82
2024/01/25 06:33:52;;;;;;;58.00;10.50;;;4.40;94.90;;;;;;5098036;28;20036;-81
2024/01/25 06:36:24;;;;;;;46.45;8.55;;;4.40;95.00;;;;;;5097944;28;20043;-81
2024/01/25 06:38:50;;;;;;;46.33;9.88;;;4.40;95.00;;;;;;5097885;28;20062;-81
2024/01/25 06:41:16;;;;;;;51.15;9.75;;;4.30;95.00;;;;;;5097425;28;20480;-82
2024/01/25 06:43:42;;;;;;;54.20;9.88;;;4.30;95.00;;;;;;5098149;28;20039;-83
2024/01/25 06:46:08;;;;;;;44.55;9.93;;;4.20;95.00;;;;;;5063883;28;20038;-82
2024/01/25 06:48:34;;;;;;;56.60;10.40;;;4.20;95.00;;;;;;5113853;28;20070;-82
2024/01/25 06:51:03;;;;;;;63.33;10.73;;;4.10;95.10;;;;;;5095671;28;20043;-82
2024/01/25 06:53:28;;;;;;;55.42;10.23;;;4.10;95.10;;;;;;5112518;28;20483;-82
2024/01/25 06:55:54;;;;;;;46.30;9.38;;;4.10;95.10;;;;;;5079503;28;20035;-82
2024/01/25 06:58:20;;;;;;;49.83;10.23;;;4.10;95.10;;;;;;5079537;28;20475;-82
2024/01/25 07:00:46;;;;;;;54.53;11.45;;;4.10;95.20;;;;;;5077268;28;20114;-82
2024/01/25 07:03:12;;;;;;;59.53;12.23;;;4.10;95.30;;;;;;5079886;28;20046;-82
2024/01/25 07:05:38;;;;;;;51.15;10.35;;;4.00;95.30;;;;;;5079478;28;20038;-82
2024/01/25 07:08:04;;;;;;;53.47;9.98;;;4.00;95.30;;;;;;5079190;28;20039;-82
2024/01/25 07:10:30;;;;;;;38.95;9.90;;;4.00;95.30;;;;;;5096217;28;20405;-82
2024/01/25 07:12:56;;;;;;;64.50;11.15;;;4.00;95.40;;;;;;5096067;28;20036;-82
2024/01/25 07:15:22;;;;;;;49.90;8.90;;;4.00;95.30;;;;;;5062491;28;20042;-82
2024/01/25 07:17:47;;;;;;;51.80;11.43;;;4.00;95.40;;;;;;5062633;28;20084;-82
2024/01/25 07:20:13;;;;;;;51.13;9.02;;;4.00;95.40;;;;;;5079380;28;20035;-83
2024/01/25 07:22:40;;;;;;;45.92;9.68;;;3.90;95.40;;;;;;5096510;28;20155;-82
2024/01/25 07:25:06;;;;;;;44.83;9.90;;;3.90;95.40;;;;;;5076120;28;20040;-82
2024/01/25 07:27:31;;;;;;;53.08;9.65;;;3.90;95.50;;;;;;5095729;28;20035;-83
2024/01/25 07:29:57;;;;;;;58.00;10.07;;;3.80;95.50;;;;;;5096007;28;20055;-82
2024/01/25 07:32:26;;;;;;;58.45;11.05;;;3.80;95.50;;;;;;5079357;28;20085;-83
2024/01/25 07:34:53;;;;;;;44.17;9.13;;;3.80;95.60;;;;;;5080213;28;20067;-83
2024/01/25 07:37:18;;;;;;;59.97;10.77;;;3.80;95.60;;;;;;5113307;28;20043;-83
2024/01/25 07:39:45;;;;;;;50.13;10.75;;;3.80;95.60;;;;;;5079136;28;20039;-82
2024/01/25 07:42:12;;;;;;;42.95;9.45;;;3.80;95.60;;;;;;5095925;28;20051;-83
2024/01/25 07:44:38;;;;;;;50.20;10.68;;;3.80;95.60;;;;;;5096019;28;20044;-82
2024/01/25 07:47:04;;;;;;;49.08;8.93;;;3.80;95.60;;;;;;5113008;28;20108;-82
2024/01/25 07:49:30;;;;;;;56.20;11.95;;;3.80;95.70;;;;;;5113080;28;20036;-82
2024/01/25 07:51:58;;;;;;;52.25;10.48;;;3.80;95.70;;;;;;5112545;28;20066;-82
2024/01/25 07:54:24;;;;;;;43.22;10.73;;;3.80;95.70;;;;;;5095790;28;20035;-82
2024/01/25 07:56:50;;;;;;;55.10;11.70;;;3.80;95.70;;;;;;5095702;28;20477;-82
2024/01/25 07:59:16;;;;;;;53.85;11.30;;;3.80;95.80;;;;;;5095772;28;20039;-82
2024/01/25 08:01:42;;;;;;;59.15;10.18;;;3.80;95.70;;;;;;5078974;28;20053;-82
2024/01/25 08:04:07;;;;;;;41.38;8.98;;;3.80;95.70;;;;;;5096105;28;20070;-82
2024/01/25 08:06:33;;;;;;;45.17;11.30;;;3.80;95.70;;;;;;5095478;28;20484;-83
2024/01/25 08:08:59;;;;;;;41.20;9.60;;;3.70;95.60;;;;;;5112427;28;20043;-82
2024/01/25 08:11:25;;;;;;;47.10;9.95;;;3.80;95.70;;;;;;5078992;28;20040;-83
2024/01/25 08:13:51;;;;;;;41.85;10.48;;;3.70;95.70;;;;;;5095661;28;20028;-83
2024/01/25 08:16:19;;;;;;;58.95;12.23;;;3.70;95.70;;;;;;5078746;28;20047;-83
2024/01/25 08:18:46;;;;;;;43.15;9.18;;;3.70;95.70;;;;;;5112384;28;20040;-83
2024/01/25 08:21:12;;;;;;;44.40;9.27;;;3.70;95.70;;;;;;5095440;28;20054;-83
2024/01/25 08:23:39;;;;;;;47.58;11.35;;;3.60;95.70;;;;;;5095569;28;20122;-82
2024/01/25 08:26:05;;;;;;;43.08;10.23;;;3.70;95.80;;;;;;5095723;28;20043;-83
2024/01/25 08:28:31;;;;;;;51.35;10.82;;;3.70;95.80;;;;;;5078316;28;20104;-83
2024/01/25 08:30:57;;;;;;;55.17;10.43;;;3.80;95.80;;;;;;5095591;28;20043;-83
2024/01/25 08:33:24;;;;;;;48.60;9.25;;;3.80;95.90;;;;;;5112219;28;20146;-82
2024/01/25 08:35:51;;;;;;;50.33;11.73;;;3.80;95.90;;;;;;5112505;28;20040;-82
2024/01/25 08:38:16;;;;;;;48.13;9.63;;;3.90;96.00;;;;;;5112143;28;20499;-82
2024/01/25 08:40:42;;;;;;;51.63;10.50;;;4.00;96.10;;;;;;5095788;28;20139;-83
2024/01/25 08:43:08;;;;;;;44.97;9.05;;;4.00;96.10;;;;;;5095319;28;20537;-82
2024/01/25 08:45:33;;;;;;;50.63;10.13;;;4.10;96.30;;;;;;5062086;28;20391;-81
2024/01/25 08:47:59;;;;;;;49.97;9.65;;;4.10;96.00;;;;;;5111920;28;20574;-82
2024/01/25 08:50:25;;;;;;;53.03;11.05;;;4.20;96.20;;;;;;5095296;28;20048;-82
2024/01/25 08:52:51;;;;;;;47.80;9.52;;;4.30;96.00;;;;;;5111983;28;20050;-83
2024/01/25 08:55:17;;;;;;;57.35;10.93;;;4.30;95.90;;;;;;5078346;28;20040;-82
2024/01/25 08:57:43;;;;;;;45.47;8.55;;;4.40;96.00;;;;;;5095000;28;20042;-82
2024/01/25 09:00:12;;;;;;;55.33;9.65;;;4.40;95.90;;;;;;5054722;28;20097;-82
2024/01/25 09:02:38;;;;;;;53.63;10.88;;;4.50;95.80;;;;;;5082727;28;20503;-83
2024/01/25 09:05:08;;;;;;;46.08;9.80;;;4.60;95.80;;;;;;5093531;28;20414;-82
2024/01/25 09:07:34;;;;;;;53.42;10.27;;;4.60;95.70;;;;;;5095572;28;20043;-83
2024/01/25 09:10:00;;;;;;;51.78;9.48;;;4.60;96.00;;;;;;5114851;28;20035;-83
2024/01/25 09:12:26;;;;;;;51.40;10.73;;;4.70;95.80;;;;;;5099074;28;20097;-82
2024/01/25 09:14:52;;;;;;;50.38;10.73;;;4.80;95.80;;;;;;5098974;28;20403;-82
2024/01/25 09:17:21;;;;;;;47.78;10.50;;;4.80;95.80;;;;;;5115854;28;20054;-83
2024/01/25 09:19:49;;;;;;;48.42;9.98;;;4.90;95.70;;;;;;5082347;28;20177;-82
2024/01/25 09:22:17;;;;;;;49.58;9.40;;;4.90;95.80;;;;;;5082306;28;20498;-83
2024/01/25 09:24:43;;;;;;;50.72;9.05;;;5.00;95.80;;;;;;5082266;28;20071;-82
2024/01/25 09:27:09;;;;;;;54.15;11.55;;;5.00;95.70;;;;;;5115924;28;20039;-82
2024/01/25 09:29:34;;;;;;;45.20;9.02;;;5.00;95.70;;;;;;5081680;28;20487;-82
2024/01/25 09:32:00;;;;;;;49.38;10.38;;;5.00;96.10;;;;;;5081716;28;20032;-82
2024/01/25 09:34:26;;;;;;;47.50;10.13;;;5.10;95.90;;;;;;5081696;28;20487;-82
2024/01/25 09:36:52;;;;;;;41.42;9.85;;;5.10;96.10;;;;;;5115469;28;20042;-82
2024/01/25 09:39:17;;;;;;;47.03;10.65;;;5.10;96.00;;;;;;5098652;28;20144;-82
2024/01/25 09:41:43;;;;;;;50.25;10.75;;;5.10;96.10;;;;;;5081608;28;20043;-82
2024/01/25 09:44:10;;;;;;;53.85;11.27;;;5.10;96.20;;;;;;5084023;28;20036;-82
2024/01/25 09:46:37;;;;;;;44.60;9.77;;;5.10;96.20;;;;;;5106459;28;20039;-81
2024/01/25 09:49:04;;;;;;;48.78;9.82;;;5.10;96.20;;;;;;5127154;28;20043;-82
2024/01/25 09:51:37;;;;;;;48.30;10.73;;;5.20;96.20;;;;;;5098255;28;20045;-82
2024/01/25 09:54:04;;;;;;;42.97;9.80;;;5.20;96.20;;;;;;5115157;28;20051;-83
2024/01/25 09:56:32;;;;;;;47.08;10.45;;;5.30;96.30;;;;;;5098177;28;20044;-82
2024/01/25 09:58:58;;;;;;;54.28;9.80;;;5.30;96.30;;;;;;5081341;28;20438;-83
2024/01/25 10:01:24;;;;;;;48.22;10.70;;;5.40;96.20;;;;;;5115039;28;20043;-82
2024/01/25 10:03:50;;;;;;;54.53;9.82;;;5.40;96.20;;;;;;5081185;28;20126;-82
2024/01/25 10:06:17;;;;;;;47.58;10.20;;;5.40;96.40;;;;;;5097909;28;20131;-82
2024/01/25 10:08:43;;;;;;;52.58;9.75;;;5.50;96.40;;;;;;5097770;28;20039;-82
2024/01/25 10:11:11;;;;;;;35.10;9.40;;;5.60;96.50;;;;;;5098070;28;20043;-83
2024/01/25 10:13:53;;;;;;;51.05;11.00;;;5.60;96.30;;;;;;5081264;28;20046;-82
2024/01/25 10:16:20;;;;;;;44.47;10.00;;;5.70;96.50;;;;;;5097411;28;20675;-83
2024/01/25 10:18:49;;;;;;;48.42;9.90;;;5.80;96.80;;;;;;5097811;28;20112;-82
2024/01/25 10:21:15;;;;;;;48.90;12.20;;;5.90;96.50;;;;;;5114900;28;20392;-82
2024/01/25 10:23:45;;;;;;;49.80;10.27;;;6.00;96.50;;;;;;5064214;28;20075;-82
2024/01/25 10:26:11;;;;;;;47.58;10.60;;;6.10;96.50;;;;;;5081061;28;20035;-82
2024/01/25 10:28:37;;;;;;;44.53;9.25;;;6.10;96.30;;;;;;5080577;28;20066;-82
2024/01/25 10:31:07;;;;;;;43.38;10.18;;;6.30;96.30;;;;;;5114358;28;20487;-83
2024/01/25 10:33:34;;;;;;;41.10;9.35;;;6.40;96.10;;;;;;5081405;28;20107;-82
2024/01/25 10:36:03;;;;;;;44.20;11.30;;;6.50;96.10;;;;;;5114638;28;20391;-82
2024/01/25 10:38:31;;;;;;;52.30;12.75;;;6.60;96.00;;;;;;5114225;28;20035;-83
2024/01/25 10:41:01;;;;;;;41.97;10.85;;;6.70;96.00;;;;;;5114255;28;20565;-82
2024/01/25 10:43:27;;;;;;;43.53;9.80;;;6.80;96.20;;;;;;5114519;28;20464;-83
2024/01/25 10:45:57;;;;;;;37.65;9.73;;;6.90;95.90;;;;;;5114376;28;20395;-82
2024/01/25 10:48:23;;;;;;;44.25;10.07;;;7.00;95.70;;;;;;5096957;28;20078;-83
2024/01/25 10:50:49;;;;;;;33.67;8.63;;;7.10;95.70;;;;;;5097097;28;20031;-83
2024/01/25 10:53:16;;;;;;;43.22;10.15;;;7.30;95.60;;;;;;5097102;28;20035;-82
2024/01/25 10:55:43;;;;;;;41.70;9.93;;;7.40;95.20;;;;;;5080130;28;20036;-83
2024/01/25 10:58:08;;;;;;;41.95;10.55;;;7.50;95.30;;;;;;5080138;28;20039;-82
2024/01/25 11:00:35;;;;;;;33.72;9.02;;;7.50;94.60;;;;;;5096846;28;20046;-82
2024/01/25 11:03:01;;;;;;;45.55;10.15;;;7.60;94.60;;;;;;5113805;28;20101;-82
2024/01/25 11:05:27;;;;;;;33.65;8.88;;;7.80;94.50;;;;;;5113666;28;20082;-83
2024/01/25 11:07:54;;;;;;;42.47;10.05;;;7.90;94.20;;;;;;5096639;28;20043;-82
2024/01/25 11:10:22;;;;;;;39.25;9.85;;;8.00;93.90;;;;;;5113655;28;20394;-82
2024/01/25 11:13:03;;;;;;;42.67;9.05;;;8.10;93.70;;;;;;5113564;28;20035;-82
2024/01/25 11:15:33;;;;;;;39.58;8.93;;;8.00;93.00;;;;;;5096489;28;20130;-82
2024/01/25 11:18:01;;;;;;;36.03;8.13;;;7.90;92.70;;;;;;5097101;28;20036;-82
2024/01/25 11:20:29;;;;;;;42.60;9.10;;;7.80;92.50;;;;;;5113689;28;20051;-82
2024/01/25 11:22:57;;;;;;;41.63;9.98;;;7.80;92.80;;;;;;5113376;28;20049;-82
2024/01/25 11:25:26;;;;;;;39.83;9.35;;;7.80;92.50;;;;;;5113514;28;20050;-81
2024/01/25 11:27:53;;;;;;;40.08;8.80;;;7.70;92.40;;;;;;5095485;28;20448;-81
2024/01/25 11:30:22;;;;;;;37.92;8.82;;;7.70;92.90;;;;;;5095983;28;20499;-82
2024/01/25 11:32:48;;;;;;;46.60;9.70;;;7.60;92.70;;;;;;5080002;28;20044;-81
2024/01/25 11:35:17;;;;;;;48.45;10.57;;;7.60;93.00;;;;;;5096450;28;20039;-81
2024/01/25 11:37:45;;;;;;;37.03;10.15;;;7.60;92.90;;;;;;5096042;28;20039;-82
2024/01/25 11:40:12;;;;;;;38.25;9.23;;;7.60;92.80;;;;;;5079065;28;20043;-82
2024/01/25 11:42:42;;;;;;;40.58;8.30;;;7.60;92.70;;;;;;5079704;28;20040;-81
2024/01/25 11:45:10;;;;;;;34.08;9.45;;;7.50;92.80;;;;;;5112998;28;20047;-82
2024/01/25 11:47:36;;;;;;;42.20;8.95;;;7.50;92.70;;;;;;5112906;28;20039;-81
2024/01/25 11:50:02;;;;;;;40.65;8.63;;;7.50;93.00;;;;;;5096117;28;20059;-81
2024/01/25 11:52:28;;;;;;;37.85;8.80;;;7.50;93.00;;;;;;5112859;28;20173;-82
2024/01/25 11:54:54;;;;;;;37.67;9.27;;;7.50;92.80;;;;;;5095851;28;20126;-82
2024/01/25 11:57:20;;;;;;;42.25;9.85;;;7.60;92.70;;;;;;5095868;28;20101;-82
2024/01/25 11:59:46;;;;;;;43.83;9.70;;;7.60;92.50;;;;;;5095712;28;20087;-81
2024/01/25 12:02:15;;;;;;;39.90;10.07;;;7.70;92.30;;;;;;5079161;28;20035;-81
2024/01/25 12:04:41;;;;;;;36.50;8.43;;;7.80;92.70;;;;;;5112550;28;20043;-82
2024/01/25 12:07:07;;;;;;;37.30;9.02;;;7.80;92.50;;;;;;5112539;28;20055;-82
2024/01/25 12:09:33;;;;;;;36.97;8.63;;;8.00;92.50;;;;;;5078598;28;20050;-81
2024/01/25 12:12:00;;;;;;;33.42;8.30;;;8.10;92.40;;;;;;5112541;28;20035;-81
2024/01/25 12:14:27;;;;;;;28.73;8.00;;;8.10;91.90;;;;;;5112419;28;20040;-82
2024/01/25 12:16:56;;;;;;;35.10;9.45;;;8.30;91.60;;;;;;5095675;28;20391;-81
2024/01/25 12:19:21;;;;;;;34.08;8.93;;;8.30;91.90;;;;;;5095585;28;20106;-81
2024/01/25 12:21:48;;;;;;;45.05;10.13;;;8.30;90.60;;;;;;5078684;28;20092;-81
2024/01/25 12:24:14;;;;;;;34.65;8.40;;;8.30;90.30;;;;;;5095579;28;20036;-81
2024/01/25 12:26:41;;;;;;;38.17;9.85;;;8.30;90.60;;;;;;5078555;28;20036;-81
2024/01/25 12:29:08;;;;;;;33.00;8.80;;;8.20;90.10;;;;;;5095045;28;20056;-81
2024/01/25 12:31:34;;;;;;;36.72;8.40;;;8.40;91.20;;;;;;5095452;28;20041;-81
2024/01/25 12:34:03;;;;;;;32.05;8.52;;;8.50;91.10;;;;;;5062287;28;20032;-81
2024/01/25 12:36:28;;;;;;;28.92;6.97;;;8.70;90.50;;;;;;5095583;28;20368;-81
2024/01/25 12:38:54;;;;;;;38.38;9.85;;;8.70;90.90;;;;;;5078061;28;20099;-81